createdAt,value
2023-03-11T00:00:47.393Z,9.30
2023-03-11T00:03:17.000Z,9.33
2023-03-11T00:05:46.559Z,9.30
2023-03-11T00:08:17.803Z,9.29
2023-03-11T00:10:47.913Z,9.30
2023-03-11T00:13:16.604Z,9.30
2023-03-11T00:15:49.675Z,9.16
2023-03-11T00:18:17.946Z,9.16
2023-03-11T00:20:47.016Z,9.22
2023-03-11T00:23:15.227Z,9.17
2023-03-11T00:25:45.293Z,9.22
2023-03-11T00:28:13.496Z,9.27
2023-03-11T00:30:42.492Z,9.16
2023-03-11T00:33:12.425Z,9.19
2023-03-11T00:35:39.608Z,9.18
2023-03-11T00:38:09.206Z,9.18
2023-03-11T00:40:41.715Z,9.15
2023-03-11T00:43:08.855Z,9.08
2023-03-11T00:45:35.985Z,9.05
2023-03-11T00:48:03.644Z,9.23
2023-03-11T00:50:34.694Z,9.18
2023-03-11T00:53:04.296Z,9.18
2023-03-11T00:55:34.657Z,9.28
2023-03-11T00:58:05.787Z,9.24
2023-03-11T01:00:33.829Z,9.22
2023-03-11T01:03:01.063Z,9.24
2023-03-11T01:05:33.799Z,9.24
2023-03-11T01:08:01.369Z,9.21
2023-03-11T01:10:30.987Z,9.20
2023-03-11T01:12:58.299Z,9.12
2023-03-11T01:15:32.023Z,9.16
2023-03-11T01:17:59.216Z,9.18
2023-03-11T01:20:26.887Z,9.12
2023-03-11T01:22:54.140Z,9.13
2023-03-11T01:25:23.742Z,9.13
2023-03-11T01:27:51.328Z,8.98
2023-03-11T01:30:22.918Z,9.14
2023-03-11T01:32:51.367Z,9.04
2023-03-11T01:35:21.446Z,8.96
2023-03-11T01:37:48.514Z,8.99
2023-03-11T01:40:39.222Z,8.99
2023-03-11T01:43:36.967Z,8.89
2023-03-11T01:46:37.570Z,8.85
2023-03-11T01:49:06.279Z,8.92
2023-03-11T01:51:42.801Z,8.87
2023-03-11T01:54:22.036Z,8.85
2023-03-11T01:56:50.744Z,8.78
2023-03-11T01:59:26.164Z,8.78
2023-03-11T02:02:28.179Z,8.69
2023-03-11T02:04:55.768Z,8.72
2023-03-11T02:07:22.946Z,8.76
2023-03-11T02:09:50.002Z,8.77
2023-03-11T02:12:17.619Z,8.69
2023-03-11T02:14:49.295Z,8.63
2023-03-11T02:17:17.040Z,8.79
2023-03-11T02:20:06.334Z,8.65
2023-03-11T02:22:34.939Z,8.66
2023-03-11T02:25:27.260Z,8.67
2023-03-11T02:27:55.719Z,8.62
2023-03-11T02:30:25.848Z,8.64
2023-03-11T02:32:53.492Z,8.57
2023-03-11T02:35:21.628Z,8.50
2023-03-11T02:37:52.676Z,8.44
2023-03-11T02:40:26.961Z,8.44
2023-03-11T02:43:01.619Z,8.37
2023-03-11T02:45:31.868Z,8.43
2023-03-11T02:48:00.621Z,8.39
2023-03-11T02:50:30.336Z,8.39
2023-03-11T02:52:57.377Z,8.28
2023-03-11T02:55:24.485Z,8.41
2023-03-11T02:57:51.457Z,8.36
2023-03-11T03:00:19.291Z,8.36
2023-03-11T03:02:47.117Z,8.34
2023-03-11T03:05:14.145Z,8.25
2023-03-11T03:07:41.121Z,8.27
2023-03-11T03:10:09.648Z,8.32
2023-03-11T03:12:36.829Z,8.32
2023-03-11T03:15:04.595Z,8.28
2023-03-11T03:17:31.662Z,8.30
2023-03-11T03:19:58.743Z,8.17
2023-03-11T03:22:27.609Z,8.27
2023-03-11T03:24:54.635Z,8.20
2023-03-11T03:27:21.700Z,8.19
2023-03-11T03:29:48.760Z,8.08
2023-03-11T03:32:15.796Z,8.17
2023-03-11T03:34:42.778Z,8.27
2023-03-11T03:37:09.812Z,8.24
2023-03-11T03:39:36.836Z,8.19
2023-03-11T03:42:04.037Z,8.17
2023-03-11T03:44:31.084Z,8.15
2023-03-11T03:46:58.090Z,8.25
2023-03-11T03:49:25.103Z,8.23
2023-03-11T03:51:52.176Z,8.20
2023-03-11T03:54:19.299Z,8.20
2023-03-11T03:56:46.313Z,8.18
2023-03-11T03:59:13.776Z,8.20
2023-03-11T04:01:40.760Z,8.18
2023-03-11T04:04:07.727Z,8.19
2023-03-11T04:06:34.796Z,8.21
2023-03-11T04:09:01.892Z,8.28
2023-03-11T04:11:28.878Z,8.30
2023-03-11T04:13:55.893Z,8.28
2023-03-11T04:16:24.670Z,8.28
2023-03-11T04:18:51.946Z,8.25
2023-03-11T04:21:19.425Z,8.26
2023-03-11T04:23:46.500Z,8.22
2023-03-11T04:26:13.654Z,8.17
2023-03-11T04:28:40.659Z,8.17
2023-03-11T04:31:08.270Z,8.25
2023-03-11T04:33:35.305Z,8.23
2023-03-11T04:36:08.095Z,8.13
2023-03-11T04:38:35.677Z,8.23
2023-03-11T04:41:07.389Z,8.24
2023-03-11T04:43:35.145Z,8.28
2023-03-11T04:46:02.206Z,8.25
2023-03-11T04:48:29.235Z,8.29
2023-03-11T04:50:56.621Z,8.28
2023-03-11T04:53:24.573Z,8.22
2023-03-11T04:55:52.458Z,8.20
2023-03-11T04:58:20.230Z,8.23
2023-03-11T05:00:47.318Z,8.22
2023-03-11T05:03:14.484Z,8.25
2023-03-11T05:05:41.576Z,8.15
2023-03-11T05:08:08.727Z,8.30
2023-03-11T05:10:36.789Z,8.29
2023-03-11T05:13:03.857Z,8.29
2023-03-11T05:15:31.584Z,8.35
2023-03-11T05:17:58.706Z,8.30
2023-03-11T05:20:25.753Z,8.18
2023-03-11T05:22:52.807Z,8.28
2023-03-11T05:25:19.824Z,8.32
2023-03-11T05:27:46.864Z,8.34
2023-03-11T05:30:15.363Z,8.38
2023-03-11T05:32:42.419Z,8.40
2023-03-11T05:35:09.780Z,8.30
2023-03-11T05:37:39.183Z,8.39
2023-03-11T05:40:08.219Z,8.43
2023-03-11T05:42:35.489Z,8.40
2023-03-11T05:45:02.455Z,8.42
2023-03-11T05:47:29.487Z,8.41
2023-03-11T05:49:56.701Z,8.41
2023-03-11T05:52:23.689Z,8.44
2023-03-11T05:54:52.300Z,8.53
2023-03-11T05:57:20.013Z,8.45
2023-03-11T05:59:47.171Z,8.51
2023-03-11T06:02:14.203Z,8.50
2023-03-11T06:04:41.340Z,8.58
2023-03-11T06:07:08.483Z,8.63
2023-03-11T06:09:38.532Z,8.71
2023-03-11T06:12:06.373Z,8.72
2023-03-11T06:14:33.419Z,8.78
2023-03-11T06:17:00.466Z,8.78
2023-03-11T06:19:27.446Z,8.79
2023-03-11T06:21:54.492Z,8.75
2023-03-11T06:24:21.472Z,8.82
2023-03-11T06:26:52.763Z,8.79
2023-03-11T06:29:21.876Z,8.79
2023-03-11T06:31:48.992Z,8.88
2023-03-11T06:34:16.120Z,8.87
2023-03-11T06:36:43.245Z,8.84
2023-03-11T06:39:14.717Z,8.89
2023-03-11T06:41:42.821Z,8.87
2023-03-11T06:44:12.699Z,9.00
2023-03-11T06:46:40.463Z,8.99
2023-03-11T06:49:07.579Z,8.87
2023-03-11T06:51:35.058Z,8.90
2023-03-11T06:54:02.089Z,8.96
2023-03-11T06:56:29.188Z,9.04
2023-03-11T06:58:56.261Z,9.00
2023-03-11T07:01:25.965Z,9.02
2023-03-11T07:03:53.423Z,9.10
2023-03-11T07:06:24.366Z,9.07
2023-03-11T07:08:52.995Z,9.14
2023-03-11T07:11:23.368Z,9.11
2023-03-11T07:13:51.309Z,9.16
2023-03-11T07:16:24.764Z,9.10
2023-03-11T07:18:53.302Z,9.15
2023-03-11T07:21:22.732Z,9.17
2023-03-11T07:23:57.252Z,9.18
2023-03-11T07:26:25.437Z,9.28
2023-03-11T07:28:54.415Z,9.24
2023-03-11T07:31:28.316Z,9.35
2023-03-11T07:33:59.458Z,9.26
2023-03-11T07:36:28.657Z,9.32
2023-03-11T07:39:04.259Z,9.28
2023-03-11T07:41:34.342Z,9.34
2023-03-11T07:44:03.909Z,9.26
2023-03-11T07:46:31.560Z,9.24
2023-03-11T07:48:58.917Z,9.32
2023-03-11T07:51:29.832Z,9.38
2023-03-11T07:53:59.187Z,9.35
2023-03-11T07:56:30.232Z,9.23
2023-03-11T07:59:02.731Z,9.32
2023-03-11T08:01:36.370Z,9.41
2023-03-11T08:04:09.637Z,9.34
2023-03-11T08:06:37.895Z,9.33
2023-03-11T08:09:10.167Z,9.35
2023-03-11T08:11:38.119Z,9.43
2023-03-11T08:14:05.993Z,9.52
2023-03-11T08:16:33.704Z,9.49
2023-03-11T08:19:00.817Z,9.46
2023-03-11T08:21:32.167Z,9.44
2023-03-11T08:24:02.616Z,9.50
2023-03-11T08:26:31.227Z,9.48
2023-03-11T08:28:59.042Z,9.46
2023-03-11T08:31:30.380Z,9.49
2023-03-11T08:34:08.575Z,9.59
2023-03-11T08:36:35.833Z,9.52
2023-03-11T08:39:03.658Z,9.54
2023-03-11T08:41:30.823Z,9.49
2023-03-11T08:43:58.116Z,9.39
2023-03-11T08:46:30.885Z,9.32
2023-03-11T08:49:01.077Z,9.37
2023-03-11T08:51:30.071Z,9.34
2023-03-11T08:53:57.677Z,9.44
2023-03-11T08:56:25.163Z,9.44
2023-03-11T08:58:52.837Z,9.40
2023-03-11T09:01:23.836Z,9.39
2023-03-11T09:03:51.347Z,9.42
2023-03-11T09:06:18.902Z,9.45
2023-03-11T09:08:46.826Z,9.43
2023-03-11T09:11:15.799Z,9.48
2023-03-11T09:13:43.781Z,9.38
2023-03-11T09:16:24.619Z,9.43
2023-03-11T09:18:51.782Z,9.34
2023-03-11T09:21:18.887Z,9.31
2023-03-11T09:23:46.486Z,9.33
2023-03-11T09:26:13.854Z,9.28
2023-03-11T09:28:42.376Z,9.23
2023-03-11T09:31:09.911Z,9.03
2023-03-11T09:33:40.519Z,8.94
2023-03-11T09:36:13.053Z,8.86
2023-03-11T09:38:40.274Z,8.87
2023-03-11T09:41:29.624Z,8.86
2023-03-11T09:44:37.671Z,8.61
2023-03-11T09:47:57.837Z,8.45
2023-03-11T09:50:33.880Z,8.42
2023-03-11T09:53:34.089Z,8.42
2023-03-11T09:56:06.209Z,8.41
2023-03-11T09:58:52.797Z,8.34
2023-03-11T10:01:44.874Z,8.19
2023-03-11T10:04:27.033Z,8.06
2023-03-11T10:06:54.715Z,7.94
2023-03-11T10:09:56.729Z,7.94
2023-03-11T10:12:51.713Z,7.86
2023-03-11T10:15:59.903Z,7.85
2023-03-11T10:18:43.029Z,7.73
2023-03-11T10:21:44.957Z,7.71
2023-03-11T10:24:55.639Z,7.56
2023-03-11T10:27:51.515Z,7.54
2023-03-11T10:30:36.373Z,7.56
2023-03-11T10:33:33.931Z,7.59
2023-03-11T10:36:08.911Z,7.42
2023-03-11T10:38:49.052Z,7.44
2023-03-11T10:41:51.086Z,7.27
2023-03-11T10:44:34.757Z,7.26
2023-03-11T10:47:02.504Z,7.25
2023-03-11T10:49:30.690Z,7.28
2023-03-11T10:51:58.239Z,7.26
2023-03-11T10:54:46.271Z,7.14
2023-03-11T10:57:48.932Z,7.07
2023-03-11T11:00:31.496Z,7.01
2023-03-11T11:02:59.913Z,6.80
2023-03-11T11:05:34.170Z,6.70
2023-03-11T11:08:13.173Z,6.74
2023-03-11T11:10:55.534Z,6.79
2023-03-11T11:13:34.477Z,6.80
2023-03-11T11:16:20.996Z,6.65
2023-03-11T11:18:57.057Z,6.62
2023-03-11T11:21:38.299Z,6.51
2023-03-11T11:24:31.581Z,6.46
2023-03-11T11:27:29.364Z,6.58
2023-03-11T11:30:11.273Z,6.55
2023-03-11T11:32:38.811Z,6.53
2023-03-11T11:35:15.805Z,6.60
2023-03-11T11:37:48.719Z,6.57
2023-03-11T11:40:15.922Z,6.56
2023-03-11T11:43:12.538Z,6.48
2023-03-11T11:45:44.391Z,6.40
2023-03-11T11:48:41.390Z,6.47
2023-03-11T11:51:36.652Z,6.61
2023-03-11T11:54:34.459Z,6.52
2023-03-11T11:57:10.376Z,6.63
2023-03-11T11:59:37.583Z,6.57
2023-03-11T12:02:07.686Z,6.36
2023-03-11T12:04:48.565Z,6.28
2023-03-11T12:07:46.298Z,6.32
2023-03-11T12:10:23.900Z,6.29
2023-03-11T12:13:11.675Z,6.21
2023-03-11T12:16:14.238Z,6.10
2023-03-11T12:18:54.455Z,5.89
2023-03-11T12:21:58.421Z,5.87
2023-03-11T12:24:40.301Z,6.00
2023-03-11T12:27:34.478Z,5.96
2023-03-11T12:30:16.704Z,6.04
2023-03-11T12:32:56.382Z,5.87
2023-03-11T12:35:36.049Z,5.87
2023-03-11T12:38:31.325Z,5.87
2023-03-11T12:41:06.321Z,5.86
2023-03-11T12:43:35.863Z,5.85
2023-03-11T12:46:06.091Z,5.61
2023-03-11T12:48:50.981Z,5.65
2023-03-11T12:51:27.129Z,5.66
2023-03-11T12:53:55.926Z,5.57
2023-03-11T12:56:45.293Z,5.58
2023-03-11T12:59:20.957Z,5.61
2023-03-11T13:01:53.743Z,5.48
2023-03-11T13:04:48.781Z,5.52
2023-03-11T13:07:51.562Z,5.40
2023-03-11T13:10:41.639Z,5.33
2023-03-11T13:13:40.727Z,5.26
2023-03-11T13:16:14.394Z,5.18
2023-03-11T13:18:44.496Z,5.20
2023-03-11T13:21:32.581Z,5.16
2023-03-11T13:24:22.109Z,5.05
2023-03-11T13:27:02.245Z,5.06
2023-03-11T13:30:10.425Z,5.09
2023-03-11T13:33:16.661Z,4.98
2023-03-11T13:36:10.793Z,5.07
2023-03-11T13:39:28.373Z,5.10
2023-03-11T13:41:56.072Z,5.00
2023-03-11T13:44:31.852Z,5.16
2023-03-11T13:47:13.915Z,5.07
2023-03-11T13:50:07.626Z,4.94
2023-03-11T13:52:47.514Z,4.82
2023-03-11T13:55:43.151Z,4.75
2023-03-11T13:58:26.201Z,4.61
2023-03-11T14:01:02.032Z,4.58
2023-03-11T14:03:40.597Z,4.58
2023-03-11T14:06:18.072Z,4.72
2023-03-11T14:08:57.728Z,4.60
2023-03-11T14:11:29.743Z,4.58
2023-03-11T14:13:56.997Z,4.61
2023-03-11T14:16:36.045Z,4.50
2023-03-11T14:19:19.273Z,4.42
2023-03-11T14:21:54.865Z,4.48
2023-03-11T14:24:31.276Z,4.33
2023-03-11T14:27:02.061Z,4.29
2023-03-11T14:29:36.709Z,4.36
2023-03-11T14:32:28.486Z,4.19
2023-03-11T14:34:55.896Z,4.14
2023-03-11T14:37:38.622Z,4.15
2023-03-11T14:40:37.770Z,4.18
2023-03-11T14:43:08.213Z,4.15
2023-03-11T14:45:42.028Z,4.20
2023-03-11T14:48:30.663Z,4.18
2023-03-11T14:51:01.294Z,4.34
2023-03-11T14:54:02.436Z,4.31
2023-03-11T14:56:32.664Z,4.42
2023-03-11T14:59:15.268Z,4.35
2023-03-11T15:01:46.668Z,4.29
2023-03-11T15:04:38.172Z,4.25
2023-03-11T15:07:08.440Z,4.22
2023-03-11T15:09:41.074Z,4.20
2023-03-11T15:12:28.553Z,4.13
2023-03-11T15:14:55.690Z,4.14
2023-03-11T15:17:34.718Z,4.13
2023-03-11T15:20:07.592Z,4.10
2023-03-11T15:22:41.361Z,4.15
2023-03-11T15:25:18.462Z,4.14
2023-03-11T15:27:46.408Z,4.15
2023-03-11T15:30:27.342Z,4.20
2023-03-11T15:32:55.615Z,4.20
2023-03-11T15:35:28.273Z,4.14
2023-03-11T15:38:26.354Z,4.14
2023-03-11T15:41:01.142Z,4.05
2023-03-11T15:43:34.597Z,4.06
2023-03-11T15:46:03.540Z,4.00
2023-03-11T15:48:31.379Z,3.97
2023-03-11T15:51:00.578Z,3.92
2023-03-11T15:53:30.267Z,3.89
2023-03-11T15:56:12.423Z,3.91
2023-03-11T15:58:39.508Z,3.95
2023-03-11T16:01:06.641Z,3.92
2023-03-11T16:03:33.710Z,3.89
2023-03-11T16:06:00.700Z,3.88
2023-03-11T16:08:27.721Z,3.83
2023-03-11T16:10:55.268Z,3.82
2023-03-11T16:13:23.437Z,3.82
2023-03-11T16:15:50.450Z,3.79
2023-03-11T16:18:17.570Z,3.75
2023-03-11T16:20:50.543Z,3.78
2023-03-11T16:23:26.183Z,3.80
2023-03-11T16:26:04.114Z,3.77
2023-03-11T16:28:31.552Z,3.76
2023-03-11T16:30:58.673Z,3.78
2023-03-11T16:33:26.081Z,3.74
2023-03-11T16:35:53.195Z,3.75
2023-03-11T16:38:23.068Z,3.72
2023-03-11T16:41:02.216Z,3.65
2023-03-11T16:43:31.749Z,3.60
2023-03-11T16:45:58.783Z,3.53
2023-03-11T16:48:26.224Z,3.59
2023-03-11T16:50:53.264Z,3.59
2023-03-11T16:53:20.541Z,3.55
2023-03-11T16:55:48.949Z,3.51
2023-03-11T16:58:16.054Z,3.56
2023-03-11T17:00:43.478Z,3.59
2023-03-11T17:03:18.221Z,3.45
2023-03-11T17:05:48.446Z,3.71
2023-03-11T17:08:18.153Z,3.55
2023-03-11T17:10:46.474Z,3.52
2023-03-11T17:13:17.104Z,3.45
2023-03-11T17:15:45.875Z,3.47
2023-03-11T17:18:13.738Z,3.42
2023-03-11T17:20:43.584Z,3.25
2023-03-11T17:23:10.750Z,3.32
2023-03-11T17:25:41.701Z,3.32
2023-03-11T17:28:09.477Z,3.33
2023-03-11T17:30:37.770Z,3.35
2023-03-11T17:33:05.216Z,3.26
2023-03-11T17:35:32.348Z,3.30
2023-03-11T17:37:59.389Z,3.33
2023-03-11T17:40:27.181Z,3.33
2023-03-11T17:42:54.199Z,3.42
2023-03-11T17:45:21.248Z,3.22
2023-03-11T17:47:48.256Z,3.34
2023-03-11T17:50:15.513Z,3.27
2023-03-11T17:52:42.548Z,3.28
2023-03-11T17:55:10.231Z,3.32
2023-03-11T17:57:45.152Z,3.37
2023-03-11T18:00:14.985Z,3.29
2023-03-11T18:02:42.439Z,3.24
2023-03-11T18:05:09.745Z,3.24
2023-03-11T18:07:40.981Z,3.31
2023-03-11T18:10:10.605Z,3.21
2023-03-11T18:12:39.297Z,3.32
2023-03-11T18:15:11.976Z,3.22
2023-03-11T18:17:39.118Z,3.20
2023-03-11T18:20:06.877Z,3.07
2023-03-11T18:22:35.369Z,3.11
2023-03-11T18:25:02.937Z,3.05
2023-03-11T18:27:30.196Z,3.09
2023-03-11T18:29:57.329Z,3.13
2023-03-11T18:32:24.785Z,3.08
2023-03-11T18:34:52.445Z,3.01
2023-03-11T18:37:19.841Z,2.94
2023-03-11T18:39:46.898Z,3.01
2023-03-11T18:42:16.140Z,2.94
2023-03-11T18:44:44.466Z,2.96
2023-03-11T18:47:11.682Z,2.85
2023-03-11T18:49:39.173Z,2.88
2023-03-11T18:52:06.207Z,2.82
2023-03-11T18:54:33.312Z,2.82
2023-03-11T18:57:00.299Z,2.90
2023-03-11T18:59:27.925Z,2.83
2023-03-11T19:01:55.189Z,2.79
2023-03-11T19:04:22.423Z,2.70
2023-03-11T19:06:50.354Z,2.72
2023-03-11T19:09:21.316Z,2.71
2023-03-11T19:11:48.485Z,2.68
2023-03-11T19:14:15.977Z,2.61
2023-03-11T19:16:43.513Z,2.76
2023-03-11T19:19:11.985Z,2.67
2023-03-11T19:21:39.427Z,2.68
2023-03-11T19:24:06.801Z,2.59
2023-03-11T19:26:44.778Z,2.61
2023-03-11T19:29:14.110Z,2.51
2023-03-11T19:31:41.626Z,2.48
2023-03-11T19:34:08.710Z,2.45
2023-03-11T19:36:35.770Z,2.43
2023-03-11T19:39:03.436Z,2.46
2023-03-11T19:41:30.542Z,2.37
2023-03-11T19:43:57.588Z,2.49
2023-03-11T19:46:24.837Z,2.37
2023-03-11T19:48:56.656Z,2.31
2023-03-11T19:51:25.304Z,2.42
2023-03-11T19:53:53.856Z,2.37
2023-03-11T19:56:21.032Z,2.37
2023-03-11T19:58:49.463Z,2.31
2023-03-11T20:01:21.855Z,2.34
2023-03-11T20:03:49.043Z,2.31
2023-03-11T20:06:18.497Z,2.19
2023-03-11T20:08:45.685Z,2.20
2023-03-11T20:11:13.143Z,2.09
2023-03-11T20:13:42.697Z,2.09
2023-03-11T20:16:18.657Z,2.14
2023-03-11T20:18:50.204Z,2.10
2023-03-11T20:21:17.809Z,2.05
2023-03-11T20:23:45.107Z,1.95
2023-03-11T20:26:15.415Z,2.07
2023-03-11T20:28:42.843Z,2.12
2023-03-11T20:31:11.206Z,2.07
2023-03-11T20:33:39.000Z,2.16
2023-03-11T20:36:13.588Z,2.21
2023-03-11T20:38:41.882Z,2.05
2023-03-11T20:41:10.175Z,1.90
2023-03-11T20:43:38.107Z,2.01
2023-03-11T20:46:06.807Z,1.96
2023-03-11T20:48:34.970Z,1.87
2023-03-11T20:51:19.508Z,1.91
2023-03-11T20:53:47.892Z,2.05
2023-03-11T20:56:19.020Z,2.02
2023-03-11T20:58:48.783Z,2.09
2023-03-11T21:01:28.969Z,2.03
2023-03-11T21:04:00.564Z,2.02
2023-03-11T21:06:34.964Z,2.09
2023-03-11T21:09:06.281Z,2.10
2023-03-11T21:11:34.450Z,2.21
2023-03-11T21:14:01.617Z,2.02
2023-03-11T21:16:29.183Z,2.00
2023-03-11T21:18:56.873Z,1.95
2023-03-11T21:21:24.302Z,2.06
2023-03-11T21:23:51.347Z,2.06
2023-03-11T21:26:20.119Z,2.03
2023-03-11T21:28:47.714Z,1.93
2023-03-11T21:31:20.974Z,1.97
2023-03-11T21:33:48.385Z,2.12
2023-03-11T21:36:18.268Z,2.06
2023-03-11T21:38:47.004Z,2.08
2023-03-11T21:41:27.083Z,1.97
2023-03-11T21:43:57.168Z,2.07
2023-03-11T21:46:29.546Z,2.13
2023-03-11T21:48:56.787Z,2.09
2023-03-11T21:51:25.279Z,2.11
2023-03-11T21:53:52.716Z,1.93
2023-03-11T21:56:20.340Z,1.94
2023-03-11T21:58:47.698Z,1.81
2023-03-11T22:01:15.939Z,1.90
2023-03-11T22:03:43.934Z,1.86
2023-03-11T22:06:13.157Z,1.91
2023-03-11T22:08:42.412Z,1.92
2023-03-11T22:11:17.595Z,1.94
2023-03-11T22:13:51.322Z,1.95
2023-03-11T22:16:20.123Z,1.94
2023-03-11T22:18:48.135Z,2.03
2023-03-11T22:21:16.527Z,2.02
2023-03-11T22:23:44.639Z,1.98
2023-03-11T22:26:11.871Z,1.84
2023-03-11T22:28:38.920Z,1.86
2023-03-11T22:31:12.450Z,1.93
2023-03-11T22:33:40.154Z,1.90
2023-03-11T22:36:09.405Z,1.92
2023-03-11T22:38:37.088Z,1.88
2023-03-11T22:41:07.666Z,1.82
2023-03-11T22:43:37.220Z,1.85
2023-03-11T22:46:05.976Z,1.78
2023-03-11T22:48:34.209Z,1.78
2023-03-11T22:51:02.108Z,1.83
2023-03-11T22:53:29.230Z,1.87
2023-03-11T22:55:56.263Z,1.80
2023-03-11T22:58:23.343Z,1.77
2023-03-11T23:00:50.554Z,1.76
2023-03-11T23:03:17.697Z,1.83
2023-03-11T23:05:46.620Z,1.76
2023-03-11T23:08:16.741Z,1.77
2023-03-11T23:10:45.868Z,1.71
2023-03-11T23:13:13.718Z,1.59
2023-03-11T23:15:43.365Z,1.57
2023-03-11T23:18:12.089Z,1.67
2023-03-11T23:20:41.593Z,1.60
2023-03-11T23:23:10.098Z,1.62
2023-03-11T23:25:38.245Z,1.61
2023-03-11T23:28:06.307Z,1.64
2023-03-11T23:30:33.535Z,1.60
2023-03-11T23:33:02.836Z,1.59
2023-03-11T23:35:31.197Z,1.67
2023-03-11T23:37:58.364Z,1.59
2023-03-11T23:40:26.067Z,1.53
2023-03-11T23:42:53.186Z,1.54
2023-03-11T23:45:20.231Z,1.59
2023-03-11T23:47:47.281Z,1.46
2023-03-11T23:50:14.351Z,1.46
2023-03-11T23:52:41.476Z,1.46
2023-03-11T23:55:09.686Z,1.45
2023-03-11T23:57:37.160Z,1.50
